Santa Marta de Tormes, Spain
Current Conditions -  °F | °C
As of 6:00 PM on Sunday 21 Dec 2014 (Local Time) from LESA Reporting Station
Overcast Overcast  
Wind Chill: 38°   Ceiling: 700
Heat Index: 41°   Visibility: 6mi
Dew Point: 39°   Wind: 5mph
Humidity: 93%   Direction: 80°E
Pressure: 30.48"   Gusts: NA
Location:  40.95°N, 5.63°W
Report Text: LESA 211700Z 08004KT 9000 OVC007 05/04 Q1032
Loading
Personal Weather Stations






























Interactive Weather Map New forecast layout! Learn more

10-Day Weather Forecast

Advertisements
Track Severe Weather on mobile